sensor_id;sensor_type;location;lat;lon;timestamp;temperature;humidity
55642;DHT22;41509;53.108;6.100;2022-12-29T00:02:22;10.10;99.90
55642;DHT22;41509;53.108;6.100;2022-12-29T00:04:49;10.10;99.90
55642;DHT22;41509;53.108;6.100;2022-12-29T00:07:16;10.20;99.90
55642;DHT22;41509;53.108;6.100;2022-12-29T00:09:42;10.20;99.90
55642;DHT22;41509;53.108;6.100;2022-12-29T00:12:07;10.20;99.90
55642;DHT22;41509;53.108;6.100;2022-12-29T00:14:33;10.20;99.90
55642;DHT22;41509;53.108;6.100;2022-12-29T00:17:17;10.30;99.90
55642;DHT22;41509;53.108;6.100;2022-12-29T00:19:43;10.30;99.90
55642;DHT22;41509;53.108;6.100;2022-12-29T00:22:27;10.30;99.90
55642;DHT22;41509;53.108;6.100;2022-12-29T00:25:31;10.40;99.90
55642;DHT22;41509;53.108;6.100;2022-12-29T00:28:15;10.40;99.90
55642;DHT22;41509;53.108;6.100;2022-12-29T00:31:00;10.40;99.90
55642;DHT22;41509;53.108;6.100;2022-12-29T00:33:44;10.40;99.90
55642;DHT22;41509;53.108;6.100;2022-12-29T00:36:35;10.40;99.90
55642;DHT22;41509;53.108;6.100;2022-12-29T00:39:07;10.50;99.90
55642;DHT22;41509;53.108;6.100;2022-12-29T00:41:53;10.50;99.90
55642;DHT22;41509;53.108;6.100;2022-12-29T00:44:37;10.50;99.90
55642;DHT22;41509;53.108;6.100;2022-12-29T00:47:03;10.50;99.90
55642;DHT22;41509;53.108;6.100;2022-12-29T00:49:30;10.50;99.90
55642;DHT22;41509;53.108;6.100;2022-12-29T00:52:01;10.50;99.90
55642;DHT22;41509;53.108;6.100;2022-12-29T00:54:28;10.50;99.90
55642;DHT22;41509;53.108;6.100;2022-12-29T00:56:54;10.50;99.90
55642;DHT22;41509;53.108;6.100;2022-12-29T00:59:20;10.40;99.90
55642;DHT22;41509;53.108;6.100;2022-12-29T01:01:46;10.50;99.90
55642;DHT22;41509;53.108;6.100;2022-12-29T01:04:15;10.50;99.90
55642;DHT22;41509;53.108;6.100;2022-12-29T01:06:41;10.50;99.90
55642;DHT22;41509;53.108;6.100;2022-12-29T01:09:07;10.50;99.90
55642;DHT22;41509;53.108;6.100;2022-12-29T01:11:52;10.50;99.90
55642;DHT22;41509;53.108;6.100;2022-12-29T01:14:18;10.50;99.90
55642;DHT22;41509;53.108;6.100;2022-12-29T01:16:44;10.50;99.90
55642;DHT22;41509;53.108;6.100;2022-12-29T01:19:11;10.60;99.90
55642;DHT22;41509;53.108;6.100;2022-12-29T01:21:36;10.50;99.90
55642;DHT22;41509;53.108;6.100;2022-12-29T01:24:02;10.50;99.90
55642;DHT22;41509;53.108;6.100;2022-12-29T01:26:30;10.50;99.90
55642;DHT22;41509;53.108;6.100;2022-12-29T01:28:56;10.50;99.90
55642;DHT22;41509;53.108;6.100;2022-12-29T01:31:22;10.50;99.90
55642;DHT22;41509;53.108;6.100;2022-12-29T01:33:47;10.50;99.90
55642;DHT22;41509;53.108;6.100;2022-12-29T01:36:15;10.50;99.90
55642;DHT22;41509;53.108;6.100;2022-12-29T01:38:45;10.50;99.90
55642;DHT22;41509;53.108;6.100;2022-12-29T01:41:12;10.40;99.90
55642;DHT22;41509;53.108;6.100;2022-12-29T01:46:24;10.40;99.90
55642;DHT22;41509;53.108;6.100;2022-12-29T01:49:20;10.40;99.90
55642;DHT22;41509;53.108;6.100;2022-12-29T01:54:31;10.30;99.90
55642;DHT22;41509;53.108;6.100;2022-12-29T01:56:59;10.30;99.90
55642;DHT22;41509;53.108;6.100;2022-12-29T01:59:33;10.30;99.90
55642;DHT22;41509;53.108;6.100;2022-12-29T02:02:00;10.30;99.90
55642;DHT22;41509;53.108;6.100;2022-12-29T02:04:32;10.30;99.90
55642;DHT22;41509;53.108;6.100;2022-12-29T02:07:03;10.20;99.90
55642;DHT22;41509;53.108;6.100;2022-12-29T02:09:29;10.30;99.90
55642;DHT22;41509;53.108;6.100;2022-12-29T02:11:56;10.20;99.90
55642;DHT22;41509;53.108;6.100;2022-12-29T02:14:23;10.20;99.90
55642;DHT22;41509;53.108;6.100;2022-12-29T02:33:53;10.20;99.90
55642;DHT22;41509;53.108;6.100;2022-12-29T02:36:42;10.20;99.90
55642;DHT22;41509;53.108;6.100;2022-12-29T02:39:40;10.20;99.90
55642;DHT22;41509;53.108;6.100;2022-12-29T02:45:25;10.30;99.90
55642;DHT22;41509;53.108;6.100;2022-12-29T02:48:03;10.30;99.90
55642;DHT22;41509;53.108;6.100;2022-12-29T02:50:39;10.30;99.90
55642;DHT22;41509;53.108;6.100;2022-12-29T02:53:15;10.30;99.90
55642;DHT22;41509;53.108;6.100;2022-12-29T02:55:49;10.30;99.90
55642;DHT22;41509;53.108;6.100;2022-12-29T02:58:20;10.40;99.90
55642;DHT22;41509;53.108;6.100;2022-12-29T03:00:56;10.40;99.90
55642;DHT22;41509;53.108;6.100;2022-12-29T03:03:52;10.40;99.90
55642;DHT22;41509;53.108;6.100;2022-12-29T03:06:49;10.40;99.90
55642;DHT22;41509;53.108;6.100;2022-12-29T03:11:51;10.40;99.90
55642;DHT22;41509;53.108;6.100;2022-12-29T03:14:44;10.40;99.90
55642;DHT22;41509;53.108;6.100;2022-12-29T03:20:17;10.30;99.90
55642;DHT22;41509;53.108;6.100;2022-12-29T03:22:47;10.20;99.90
55642;DHT22;41509;53.108;6.100;2022-12-29T03:25:16;10.20;99.90
55642;DHT22;41509;53.108;6.100;2022-12-29T03:27:47;10.20;99.90
55642;DHT22;41509;53.108;6.100;2022-12-29T03:30:14;10.10;99.90
55642;DHT22;41509;53.108;6.100;2022-12-29T03:32:50;10.00;99.90
55642;DHT22;41509;53.108;6.100;2022-12-29T03:35:20;10.00;99.90
55642;DHT22;41509;53.108;6.100;2022-12-29T03:40:33;9.90;99.90
55642;DHT22;41509;53.108;6.100;2022-12-29T03:43:01;9.90;99.90
55642;DHT22;41509;53.108;6.100;2022-12-29T03:45:27;9.90;99.90
55642;DHT22;41509;53.108;6.100;2022-12-29T03:47:53;9.90;99.90
55642;DHT22;41509;53.108;6.100;2022-12-29T03:50:19;9.80;99.90
55642;DHT22;41509;53.108;6.100;2022-12-29T03:52:44;9.80;99.90
55642;DHT22;41509;53.108;6.100;2022-12-29T03:55:10;9.80;99.90
55642;DHT22;41509;53.108;6.100;2022-12-29T03:57:36;9.80;99.90
55642;DHT22;41509;53.108;6.100;2022-12-29T04:00:04;9.80;99.90
55642;DHT22;41509;53.108;6.100;2022-12-29T04:02:30;9.70;99.90
55642;DHT22;41509;53.108;6.100;2022-12-29T04:04:56;9.70;99.90
55642;DHT22;41509;53.108;6.100;2022-12-29T04:07:21;9.70;99.90
55642;DHT22;41509;53.108;6.100;2022-12-29T04:09:47;9.70;99.90
55642;DHT22;41509;53.108;6.100;2022-12-29T04:12:13;9.80;99.90
55642;DHT22;41509;53.108;6.100;2022-12-29T04:14:39;9.80;99.90
55642;DHT22;41509;53.108;6.100;2022-12-29T04:17:08;9.80;99.90
55642;DHT22;41509;53.108;6.100;2022-12-29T04:19:33;9.70;99.90
55642;DHT22;41509;53.108;6.100;2022-12-29T04:21:59;9.80;99.90
55642;DHT22;41509;53.108;6.100;2022-12-29T04:24:25;9.80;99.90
55642;DHT22;41509;53.108;6.100;2022-12-29T04:26:50;9.80;99.90
55642;DHT22;41509;53.108;6.100;2022-12-29T04:29:16;9.70;99.90
55642;DHT22;41509;53.108;6.100;2022-12-29T04:31:44;9.70;99.90
55642;DHT22;41509;53.108;6.100;2022-12-29T04:34:09;9.60;99.90
55642;DHT22;41509;53.108;6.100;2022-12-29T04:36:35;9.60;99.90
55642;DHT22;41509;53.108;6.100;2022-12-29T04:39:01;9.60;99.90
55642;DHT22;41509;53.108;6.100;2022-12-29T04:41:27;9.60;99.90
55642;DHT22;41509;53.108;6.100;2022-12-29T04:43:53;9.50;99.90
55642;DHT22;41509;53.108;6.100;2022-12-29T04:46:18;9.50;99.90
55642;DHT22;41509;53.108;6.100;2022-12-29T04:48:44;9.40;99.90
55642;DHT22;41509;53.108;6.100;2022-12-29T04:51:10;9.40;99.90
55642;DHT22;41509;53.108;6.100;2022-12-29T04:53:35;9.30;99.90
55642;DHT22;41509;53.108;6.100;2022-12-29T04:56:01;9.30;99.90
55642;DHT22;41509;53.108;6.100;2022-12-29T04:58:27;9.30;99.90
55642;DHT22;41509;53.108;6.100;2022-12-29T05:00:52;9.30;99.90
55642;DHT22;41509;53.108;6.100;2022-12-29T05:03:18;9.30;99.90
55642;DHT22;41509;53.108;6.100;2022-12-29T05:05:46;9.20;99.90
55642;DHT22;41509;53.108;6.100;2022-12-29T05:08:12;9.20;99.90
55642;DHT22;41509;53.108;6.100;2022-12-29T05:10:37;9.20;99.90
55642;DHT22;41509;53.108;6.100;2022-12-29T05:13:03;9.20;99.90
55642;DHT22;41509;53.108;6.100;2022-12-29T05:15:29;9.20;99.90
55642;DHT22;41509;53.108;6.100;2022-12-29T05:17:55;9.10;99.90
55642;DHT22;41509;53.108;6.100;2022-12-29T05:20:20;9.10;99.90
55642;DHT22;41509;53.108;6.100;2022-12-29T05:22:46;9.10;99.90
55642;DHT22;41509;53.108;6.100;2022-12-29T05:25:12;9.10;99.90
55642;DHT22;41509;53.108;6.100;2022-12-29T05:27:37;9.00;99.90
55642;DHT22;41509;53.108;6.100;2022-12-29T05:30:03;9.00;99.90
55642;DHT22;41509;53.108;6.100;2022-12-29T05:32:29;9.10;99.90
55642;DHT22;41509;53.108;6.100;2022-12-29T05:34:54;9.10;99.90
55642;DHT22;41509;53.108;6.100;2022-12-29T05:37:20;9.10;99.90
55642;DHT22;41509;53.108;6.100;2022-12-29T05:39:46;9.10;99.90
55642;DHT22;41509;53.108;6.100;2022-12-29T05:42:11;9.10;99.90
55642;DHT22;41509;53.108;6.100;2022-12-29T05:44:37;9.20;99.90
55642;DHT22;41509;53.108;6.100;2022-12-29T05:47:03;9.20;99.90
55642;DHT22;41509;53.108;6.100;2022-12-29T05:49:28;9.20;99.90
55642;DHT22;41509;53.108;6.100;2022-12-29T05:51:54;9.20;99.90
55642;DHT22;41509;53.108;6.100;2022-12-29T05:54:20;9.30;99.90
55642;DHT22;41509;53.108;6.100;2022-12-29T05:56:45;9.30;99.90
55642;DHT22;41509;53.108;6.100;2022-12-29T05:59:11;9.30;99.90
55642;DHT22;41509;53.108;6.100;2022-12-29T06:01:36;9.30;99.90
55642;DHT22;41509;53.108;6.100;2022-12-29T06:04:02;9.40;99.90
55642;DHT22;41509;53.108;6.100;2022-12-29T06:06:28;9.40;99.90
55642;DHT22;41509;53.108;6.100;2022-12-29T06:08:53;9.30;99.90
55642;DHT22;41509;53.108;6.100;2022-12-29T06:11:19;9.40;99.90
55642;DHT22;41509;53.108;6.100;2022-12-29T06:13:47;9.30;99.90
55642;DHT22;41509;53.108;6.100;2022-12-29T06:16:13;9.30;99.90
55642;DHT22;41509;53.108;6.100;2022-12-29T06:18:41;9.30;99.90
55642;DHT22;41509;53.108;6.100;2022-12-29T06:21:11;9.20;99.90
55642;DHT22;41509;53.108;6.100;2022-12-29T06:23:37;9.20;99.90
55642;DHT22;41509;53.108;6.100;2022-12-29T06:26:02;9.20;99.90
55642;DHT22;41509;53.108;6.100;2022-12-29T06:28:31;9.20;99.90
55642;DHT22;41509;53.108;6.100;2022-12-29T06:30:56;9.20;99.90
55642;DHT22;41509;53.108;6.100;2022-12-29T06:33:22;9.20;99.90
55642;DHT22;41509;53.108;6.100;2022-12-29T06:35:48;9.10;99.90
55642;DHT22;41509;53.108;6.100;2022-12-29T06:38:14;9.10;99.90
55642;DHT22;41509;53.108;6.100;2022-12-29T06:40:41;9.10;99.90
55642;DHT22;41509;53.108;6.100;2022-12-29T06:43:07;9.10;99.90
55642;DHT22;41509;53.108;6.100;2022-12-29T06:45:32;9.00;99.90
55642;DHT22;41509;53.108;6.100;2022-12-29T06:47:58;9.10;99.90
55642;DHT22;41509;53.108;6.100;2022-12-29T06:50:24;9.00;99.90
55642;DHT22;41509;53.108;6.100;2022-12-29T06:52:52;9.00;99.90
55642;DHT22;41509;53.108;6.100;2022-12-29T06:55:18;9.00;99.90
55642;DHT22;41509;53.108;6.100;2022-12-29T06:57:43;9.00;99.90
55642;DHT22;41509;53.108;6.100;2022-12-29T07:00:09;9.00;99.90
55642;DHT22;41509;53.108;6.100;2022-12-29T07:02:35;9.00;99.90
55642;DHT22;41509;53.108;6.100;2022-12-29T07:05:00;9.10;99.90
55642;DHT22;41509;53.108;6.100;2022-12-29T07:07:26;9.10;99.90
55642;DHT22;41509;53.108;6.100;2022-12-29T07:09:52;9.10;99.90
55642;DHT22;41509;53.108;6.100;2022-12-29T07:12:17;9.10;99.90
55642;DHT22;41509;53.108;6.100;2022-12-29T07:14:43;9.10;99.90
55642;DHT22;41509;53.108;6.100;2022-12-29T07:17:09;9.10;99.90
55642;DHT22;41509;53.108;6.100;2022-12-29T07:19:34;9.10;99.90
55642;DHT22;41509;53.108;6.100;2022-12-29T07:22:02;9.20;99.90
55642;DHT22;41509;53.108;6.100;2022-12-29T07:24:28;9.20;99.90
55642;DHT22;41509;53.108;6.100;2022-12-29T07:26:55;9.20;99.90
55642;DHT22;41509;53.108;6.100;2022-12-29T07:29:20;9.20;99.90
55642;DHT22;41509;53.108;6.100;2022-12-29T07:31:48;9.20;99.90
55642;DHT22;41509;53.108;6.100;2022-12-29T07:34:14;9.20;99.90
55642;DHT22;41509;53.108;6.100;2022-12-29T07:36:39;9.20;99.90
55642;DHT22;41509;53.108;6.100;2022-12-29T07:39:05;9.20;99.90
55642;DHT22;41509;53.108;6.100;2022-12-29T07:41:31;9.10;99.90
55642;DHT22;41509;53.108;6.100;2022-12-29T07:43:56;9.20;99.90
55642;DHT22;41509;53.108;6.100;2022-12-29T07:46:22;9.20;99.90
55642;DHT22;41509;53.108;6.100;2022-12-29T07:48:47;9.20;99.90
55642;DHT22;41509;53.108;6.100;2022-12-29T07:51:13;9.20;99.90
55642;DHT22;41509;53.108;6.100;2022-12-29T07:53:39;9.20;99.90
55642;DHT22;41509;53.108;6.100;2022-12-29T07:56:05;9.20;99.90
55642;DHT22;41509;53.108;6.100;2022-12-29T07:58:31;9.20;99.90
55642;DHT22;41509;53.108;6.100;2022-12-29T08:00:57;9.20;99.90
55642;DHT22;41509;53.108;6.100;2022-12-29T08:03:23;9.20;99.90
55642;DHT22;41509;53.108;6.100;2022-12-29T08:05:50;9.20;99.90
55642;DHT22;41509;53.108;6.100;2022-12-29T08:08:15;9.20;99.90
55642;DHT22;41509;53.108;6.100;2022-12-29T08:10:41;9.20;99.90
55642;DHT22;41509;53.108;6.100;2022-12-29T08:13:07;9.30;99.90
55642;DHT22;41509;53.108;6.100;2022-12-29T08:15:32;9.30;99.90
55642;DHT22;41509;53.108;6.100;2022-12-29T08:17:58;9.30;99.90
55642;DHT22;41509;53.108;6.100;2022-12-29T08:20:24;9.30;99.90
55642;DHT22;41509;53.108;6.100;2022-12-29T08:22:51;9.30;99.90
55642;DHT22;41509;53.108;6.100;2022-12-29T08:25:16;9.30;99.90
55642;DHT22;41509;53.108;6.100;2022-12-29T08:27:42;9.20;99.90
55642;DHT22;41509;53.108;6.100;2022-12-29T08:30:08;9.30;99.90
55642;DHT22;41509;53.108;6.100;2022-12-29T08:32:34;9.30;99.90
55642;DHT22;41509;53.108;6.100;2022-12-29T08:34:59;9.30;99.90
55642;DHT22;41509;53.108;6.100;2022-12-29T08:37:26;9.30;99.90
55642;DHT22;41509;53.108;6.100;2022-12-29T08:39:51;9.30;99.90
55642;DHT22;41509;53.108;6.100;2022-12-29T08:42:17;9.20;99.90
55642;DHT22;41509;53.108;6.100;2022-12-29T08:44:43;9.30;99.90
55642;DHT22;41509;53.108;6.100;2022-12-29T08:47:10;9.30;99.90
55642;DHT22;41509;53.108;6.100;2022-12-29T08:49:36;9.30;99.90
55642;DHT22;41509;53.108;6.100;2022-12-29T08:52:01;9.30;99.90
55642;DHT22;41509;53.108;6.100;2022-12-29T08:54:27;9.40;99.90
55642;DHT22;41509;53.108;6.100;2022-12-29T08:56:53;9.40;99.90
55642;DHT22;41509;53.108;6.100;2022-12-29T08:59:19;9.20;99.90
55642;DHT22;41509;53.108;6.100;2022-12-29T09:01:45;9.40;99.90
55642;DHT22;41509;53.108;6.100;2022-12-29T09:04:11;9.30;99.90
55642;DHT22;41509;53.108;6.100;2022-12-29T09:06:37;9.30;99.90
55642;DHT22;41509;53.108;6.100;2022-12-29T09:09:02;9.30;99.90
55642;DHT22;41509;53.108;6.100;2022-12-29T09:11:28;9.30;99.90
55642;DHT22;41509;53.108;6.100;2022-12-29T09:13:54;9.30;99.90
55642;DHT22;41509;53.108;6.100;2022-12-29T09:16:22;9.30;99.90
55642;DHT22;41509;53.108;6.100;2022-12-29T09:18:48;9.30;99.90
55642;DHT22;41509;53.108;6.100;2022-12-29T09:21:14;9.30;99.90
55642;DHT22;41509;53.108;6.100;2022-12-29T09:23:40;9.20;99.90
55642;DHT22;41509;53.108;6.100;2022-12-29T09:26:06;9.30;99.90
55642;DHT22;41509;53.108;6.100;2022-12-29T09:28:33;9.30;99.90
55642;DHT22;41509;53.108;6.100;2022-12-29T09:30:58;9.20;99.90
55642;DHT22;41509;53.108;6.100;2022-12-29T09:33:24;9.20;99.90
55642;DHT22;41509;53.108;6.100;2022-12-29T09:35:52;9.20;99.90
55642;DHT22;41509;53.108;6.100;2022-12-29T09:38:19;9.30;99.90
55642;DHT22;41509;53.108;6.100;2022-12-29T09:40:50;9.30;99.90
55642;DHT22;41509;53.108;6.100;2022-12-29T09:48:37;9.30;99.90
55642;DHT22;41509;53.108;6.100;2022-12-29T09:51:10;9.20;99.90
55642;DHT22;41509;53.108;6.100;2022-12-29T09:53:40;9.20;99.90
55642;DHT22;41509;53.108;6.100;2022-12-29T09:56:21;9.20;99.90
55642;DHT22;41509;53.108;6.100;2022-12-29T09:58:52;9.20;99.90
55642;DHT22;41509;53.108;6.100;2022-12-29T10:03:53;9.10;99.90
55642;DHT22;41509;53.108;6.100;2022-12-29T10:25:32;8.80;99.90
55642;DHT22;41509;53.108;6.100;2022-12-29T10:28:04;8.80;99.90
55642;DHT22;41509;53.108;6.100;2022-12-29T10:30:33;8.80;99.90
55642;DHT22;41509;53.108;6.100;2022-12-29T10:33:02;8.80;99.90
55642;DHT22;41509;53.108;6.100;2022-12-29T10:35:34;8.80;99.90
55642;DHT22;41509;53.108;6.100;2022-12-29T10:38:29;8.80;99.90
55642;DHT22;41509;53.108;6.100;2022-12-29T10:41:04;8.80;99.90
55642;DHT22;41509;53.108;6.100;2022-12-29T10:43:41;8.90;99.90
55642;DHT22;41509;53.108;6.100;2022-12-29T10:46:14;8.90;99.90
55642;DHT22;41509;53.108;6.100;2022-12-29T10:48:41;8.90;99.90
55642;DHT22;41509;53.108;6.100;2022-12-29T10:51:39;8.90;99.90
55642;DHT22;41509;53.108;6.100;2022-12-29T10:54:15;8.90;99.90
55642;DHT22;41509;53.108;6.100;2022-12-29T10:56:52;9.00;99.90
55642;DHT22;41509;53.108;6.100;2022-12-29T10:59:29;9.00;99.90
55642;DHT22;41509;53.108;6.100;2022-12-29T11:08:10;9.00;99.90
55642;DHT22;41509;53.108;6.100;2022-12-29T11:10:42;9.00;99.90
55642;DHT22;41509;53.108;6.100;2022-12-29T11:13:48;9.00;99.90
55642;DHT22;41509;53.108;6.100;2022-12-29T11:16:14;9.10;99.90
55642;DHT22;41509;53.108;6.100;2022-12-29T11:18:40;9.10;99.90
55642;DHT22;41509;53.108;6.100;2022-12-29T11:24:03;9.10;99.90
55642;DHT22;41509;53.108;6.100;2022-12-29T11:26:31;9.10;99.90
55642;DHT22;41509;53.108;6.100;2022-12-29T11:31:40;9.20;99.90
55642;DHT22;41509;53.108;6.100;2022-12-29T11:34:07;9.20;99.90
55642;DHT22;41509;53.108;6.100;2022-12-29T11:36:34;9.20;99.90
55642;DHT22;41509;53.108;6.100;2022-12-29T11:39:01;9.20;99.90
55642;DHT22;41509;53.108;6.100;2022-12-29T11:41:31;9.30;99.90
55642;DHT22;41509;53.108;6.100;2022-12-29T11:44:02;9.40;99.90
55642;DHT22;41509;53.108;6.100;2022-12-29T11:46:35;9.40;99.90
55642;DHT22;41509;53.108;6.100;2022-12-29T11:49:02;9.40;99.90
55642;DHT22;41509;53.108;6.100;2022-12-29T11:51:43;9.50;99.90
55642;DHT22;41509;53.108;6.100;2022-12-29T11:54:17;9.50;99.90
55642;DHT22;41509;53.108;6.100;2022-12-29T11:56:45;9.60;99.90
55642;DHT22;41509;53.108;6.100;2022-12-29T12:02:25;9.80;99.90
55642;DHT22;41509;53.108;6.100;2022-12-29T12:05:10;9.80;99.90
55642;DHT22;41509;53.108;6.100;2022-12-29T12:10:43;9.80;99.90
55642;DHT22;41509;53.108;6.100;2022-12-29T12:13:27;9.80;99.90
55642;DHT22;41509;53.108;6.100;2022-12-29T12:16:15;9.70;99.90
55642;DHT22;41509;53.108;6.100;2022-12-29T12:18:52;9.60;99.90
55642;DHT22;41509;53.108;6.100;2022-12-29T12:21:32;9.60;99.90
55642;DHT22;41509;53.108;6.100;2022-12-29T12:29:32;9.60;99.90
55642;DHT22;41509;53.108;6.100;2022-12-29T12:32:41;9.60;99.90
55642;DHT22;41509;53.108;6.100;2022-12-29T12:35:24;9.60;99.90
55642;DHT22;41509;53.108;6.100;2022-12-29T12:46:10;9.60;99.90
55642;DHT22;41509;53.108;6.100;2022-12-29T13:00:00;9.60;99.90
55642;DHT22;41509;53.108;6.100;2022-12-29T13:02:37;9.50;99.90
55642;DHT22;41509;53.108;6.100;2022-12-29T13:18:18;9.50;99.90
55642;DHT22;41509;53.108;6.100;2022-12-29T13:23:33;9.50;99.90
55642;DHT22;41509;53.108;6.100;2022-12-29T13:36:56;9.50;99.90
55642;DHT22;41509;53.108;6.100;2022-12-29T13:39:37;9.40;99.90
55642;DHT22;41509;53.108;6.100;2022-12-29T13:42:05;9.50;99.90
55642;DHT22;41509;53.108;6.100;2022-12-29T13:44:34;9.60;99.90
55642;DHT22;41509;53.108;6.100;2022-12-29T13:47:08;9.60;99.90
55642;DHT22;41509;53.108;6.100;2022-12-29T13:49:38;9.60;99.90
55642;DHT22;41509;53.108;6.100;2022-12-29T13:52:28;9.60;99.90
55642;DHT22;41509;53.108;6.100;2022-12-29T13:57:51;9.50;99.90
55642;DHT22;41509;53.108;6.100;2022-12-29T14:00:22;9.50;99.90
55642;DHT22;41509;53.108;6.100;2022-12-29T14:05:35;9.50;99.90
55642;DHT22;41509;53.108;6.100;2022-12-29T14:08:04;9.50;99.90
55642;DHT22;41509;53.108;6.100;2022-12-29T14:10:37;9.40;99.90
55642;DHT22;41509;53.108;6.100;2022-12-29T14:13:10;9.40;99.90
55642;DHT22;41509;53.108;6.100;2022-12-29T14:15:38;9.40;99.90
55642;DHT22;41509;53.108;6.100;2022-12-29T14:18:28;9.20;99.90
55642;DHT22;41509;53.108;6.100;2022-12-29T14:21:03;9.30;99.90
55642;DHT22;41509;53.108;6.100;2022-12-29T14:28:33;9.20;99.90
55642;DHT22;41509;53.108;6.100;2022-12-29T14:31:01;9.10;99.90
55642;DHT22;41509;53.108;6.100;2022-12-29T14:33:32;9.10;99.90
55642;DHT22;41509;53.108;6.100;2022-12-29T14:38:45;9.00;99.90
55642;DHT22;41509;53.108;6.100;2022-12-29T14:41:33;8.90;99.90
55642;DHT22;41509;53.108;6.100;2022-12-29T14:49:17;8.90;99.90
55642;DHT22;41509;53.108;6.100;2022-12-29T14:51:45;8.80;99.90
55642;DHT22;41509;53.108;6.100;2022-12-29T14:57:06;8.70;99.90
55642;DHT22;41509;53.108;6.100;2022-12-29T14:59:33;8.70;99.90
55642;DHT22;41509;53.108;6.100;2022-12-29T15:02:03;8.70;99.90
55642;DHT22;41509;53.108;6.100;2022-12-29T15:04:33;8.70;99.90
55642;DHT22;41509;53.108;6.100;2022-12-29T15:07:02;8.60;99.90
55642;DHT22;41509;53.108;6.100;2022-12-29T15:09:39;8.60;99.90
55642;DHT22;41509;53.108;6.100;2022-12-29T15:12:51;8.60;99.90
55642;DHT22;41509;53.108;6.100;2022-12-29T15:15:24;8.60;99.90
55642;DHT22;41509;53.108;6.100;2022-12-29T15:17:54;8.50;99.90
55642;DHT22;41509;53.108;6.100;2022-12-29T15:20:24;8.50;99.90
55642;DHT22;41509;53.108;6.100;2022-12-29T15:22:56;8.50;99.90
55642;DHT22;41509;53.108;6.100;2022-12-29T15:25:22;8.50;99.90
55642;DHT22;41509;53.108;6.100;2022-12-29T15:27:54;8.40;99.90
55642;DHT22;41509;53.108;6.100;2022-12-29T15:30:22;8.40;99.90
55642;DHT22;41509;53.108;6.100;2022-12-29T15:32:48;8.50;99.90
55642;DHT22;41509;53.108;6.100;2022-12-29T15:35:32;8.40;99.90
55642;DHT22;41509;53.108;6.100;2022-12-29T15:38:00;8.50;99.90
55642;DHT22;41509;53.108;6.100;2022-12-29T15:40:32;8.40;99.90
55642;DHT22;41509;53.108;6.100;2022-12-29T15:45:33;8.40;99.90
55642;DHT22;41509;53.108;6.100;2022-12-29T15:47:59;8.40;99.90
55642;DHT22;41509;53.108;6.100;2022-12-29T15:50:28;8.50;99.90
55642;DHT22;41509;53.108;6.100;2022-12-29T15:52:55;8.40;99.90
55642;DHT22;41509;53.108;6.100;2022-12-29T15:55:24;8.50;99.90
55642;DHT22;41509;53.108;6.100;2022-12-29T15:57:56;8.50;99.90
55642;DHT22;41509;53.108;6.100;2022-12-29T16:00:35;8.50;99.90
55642;DHT22;41509;53.108;6.100;2022-12-29T16:03:04;8.40;99.90
55642;DHT22;41509;53.108;6.100;2022-12-29T16:05:38;8.30;99.90
55642;DHT22;41509;53.108;6.100;2022-12-29T16:11:31;8.30;99.90
55642;DHT22;41509;53.108;6.100;2022-12-29T16:13:57;8.20;99.90
55642;DHT22;41509;53.108;6.100;2022-12-29T16:16:30;8.10;99.90
55642;DHT22;41509;53.108;6.100;2022-12-29T16:18:57;8.10;99.90
55642;DHT22;41509;53.108;6.100;2022-12-29T16:21:29;8.00;99.90
55642;DHT22;41509;53.108;6.100;2022-12-29T16:24:04;8.00;99.90
55642;DHT22;41509;53.108;6.100;2022-12-29T16:26:30;7.90;99.90
55642;DHT22;41509;53.108;6.100;2022-12-29T16:28:59;7.80;99.90
55642;DHT22;41509;53.108;6.100;2022-12-29T16:31:35;7.80;99.90
55642;DHT22;41509;53.108;6.100;2022-12-29T16:34:30;7.80;99.90
55642;DHT22;41509;53.108;6.100;2022-12-29T16:36:57;7.70;99.90
55642;DHT22;41509;53.108;6.100;2022-12-29T16:39:27;7.70;99.90
55642;DHT22;41509;53.108;6.100;2022-12-29T16:41:54;7.70;99.90
55642;DHT22;41509;53.108;6.100;2022-12-29T16:44:26;7.70;99.90
55642;DHT22;41509;53.108;6.100;2022-12-29T16:49:25;7.60;99.90
55642;DHT22;41509;53.108;6.100;2022-12-29T16:51:52;7.60;99.90
55642;DHT22;41509;53.108;6.100;2022-12-29T16:54:24;7.60;99.90
55642;DHT22;41509;53.108;6.100;2022-12-29T16:56:50;7.60;99.90
55642;DHT22;41509;53.108;6.100;2022-12-29T16:59:27;7.70;99.90
55642;DHT22;41509;53.108;6.100;2022-12-29T17:01:57;7.60;99.90
55642;DHT22;41509;53.108;6.100;2022-12-29T17:04:23;7.70;99.90
55642;DHT22;41509;53.108;6.100;2022-12-29T17:06:49;7.70;99.90
55642;DHT22;41509;53.108;6.100;2022-12-29T17:09:19;7.70;99.90
55642;DHT22;41509;53.108;6.100;2022-12-29T17:11:48;7.70;99.90
55642;DHT22;41509;53.108;6.100;2022-12-29T17:16:50;7.80;99.90
55642;DHT22;41509;53.108;6.100;2022-12-29T17:19:26;7.70;99.90
55642;DHT22;41509;53.108;6.100;2022-12-29T17:21:53;7.80;99.90
55642;DHT22;41509;53.108;6.100;2022-12-29T17:24:19;7.80;99.90
55642;DHT22;41509;53.108;6.100;2022-12-29T17:26:49;7.80;99.90
55642;DHT22;41509;53.108;6.100;2022-12-29T17:29:35;7.80;99.90
55642;DHT22;41509;53.108;6.100;2022-12-29T17:32:03;7.80;99.90
55642;DHT22;41509;53.108;6.100;2022-12-29T17:34:31;7.80;99.90
55642;DHT22;41509;53.108;6.100;2022-12-29T17:36:56;7.80;99.90
55642;DHT22;41509;53.108;6.100;2022-12-29T17:39:25;7.80;99.90
55642;DHT22;41509;53.108;6.100;2022-12-29T17:41:50;7.80;99.90
55642;DHT22;41509;53.108;6.100;2022-12-29T17:44:18;7.90;99.90
55642;DHT22;41509;53.108;6.100;2022-12-29T17:46:45;7.90;99.90
55642;DHT22;41509;53.108;6.100;2022-12-29T17:49:12;7.80;99.90
55642;DHT22;41509;53.108;6.100;2022-12-29T17:51:40;7.80;99.90
55642;DHT22;41509;53.108;6.100;2022-12-29T17:54:14;7.80;99.90
55642;DHT22;41509;53.108;6.100;2022-12-29T17:56:42;7.70;99.90
55642;DHT22;41509;53.108;6.100;2022-12-29T17:59:11;7.80;99.90
55642;DHT22;41509;53.108;6.100;2022-12-29T18:01:39;7.80;99.90
55642;DHT22;41509;53.108;6.100;2022-12-29T18:04:04;7.80;99.90
55642;DHT22;41509;53.108;6.100;2022-12-29T18:06:30;7.80;99.90
55642;DHT22;41509;53.108;6.100;2022-12-29T18:08:55;7.80;99.90
55642;DHT22;41509;53.108;6.100;2022-12-29T18:11:24;7.80;99.90
55642;DHT22;41509;53.108;6.100;2022-12-29T18:13:51;7.80;99.90
55642;DHT22;41509;53.108;6.100;2022-12-29T18:16:16;7.80;99.90
55642;DHT22;41509;53.108;6.100;2022-12-29T18:18:42;7.70;99.90
55642;DHT22;41509;53.108;6.100;2022-12-29T18:21:20;7.80;99.90
55642;DHT22;41509;53.108;6.100;2022-12-29T18:23:46;7.70;99.90
55642;DHT22;41509;53.108;6.100;2022-12-29T18:26:18;7.70;99.90
55642;DHT22;41509;53.108;6.100;2022-12-29T18:28:45;7.70;99.90
55642;DHT22;41509;53.108;6.100;2022-12-29T18:31:18;7.70;99.90
55642;DHT22;41509;53.108;6.100;2022-12-29T18:33:45;7.70;99.90
55642;DHT22;41509;53.108;6.100;2022-12-29T18:36:12;7.60;99.90
55642;DHT22;41509;53.108;6.100;2022-12-29T18:38:37;7.60;99.90
55642;DHT22;41509;53.108;6.100;2022-12-29T18:41:03;7.60;99.90
55642;DHT22;41509;53.108;6.100;2022-12-29T18:43:29;7.60;99.90